Terminal Aerodrome Forecast
Issued by NWS Quad Cities IA IL

Home | Current Version | Previous Version | Graphics & Text | Print | Product List | Glossary On
Versions: 1 2 3 4 5 6 7 8 9 10 11 12 13 14 15 16 17 18 19 20
868
FTUS43 KDVN 030011 RRA
TAFDBQ
TAF
KDBQ 030011Z 0300/0324 31006KT P6SM OVC020
     FM031500 28006KT P6SM OVC030=

USA.gov is the U.S. government's official web portal to all federal, state and local government web resources and services.